Main page
METAR-TAF:

METAR-TAF

Airports :

Oil platform

Ekofisk, Norway

latitude: 56-33N, longitude: 003-15E, elevation: 3 m

Current weather observation

The report was made 23 minutes ago, at 23:50 UTC
Wind 22 kt from the South
Temperature 13°C
Humidity 88%
Pressure 1010 hPa
Visibility 10 km or more
Broken clouds at a height of 4000 ft

METAR: ENLE 172350Z 18022KT 9999 BKN040 13/11 Q1010 W12/S3

Time: 02:13 (00:13 UTC)

Forecast

The report was made 1 hour and 13 minutes ago, at 23:00 UTC
Forecast valid from 18 at 00 UTC to 18 at 09 UTC
Wind 20 kt from the South
Visibility 10 km or more
Few clouds at a height of 1500 ft
Temporary
from 18 at 02 UTC to 18 at 06 UTC
Broken clouds at a height of 800 ft
Becoming
from 18 at 03 UTC to 18 at 05 UTC
Wind 20 kt from the West/Southwest

TAF: ENLE 172300Z 1800/1809 18020KT 9999 FEW015 TEMPO 1802/1806 BKN008 BECMG 1803/1805 24020KT

Weather observations and forecasts of more than 4000 airports (METAR and TAF reports).

The available stations are represented by yellow and red dots on the map.

Hover mouse over dot to see the name of the station.

Then click to see weather observations and forecasts.

To change the map : click on the green buttons with a black cross to zoom in, on the green button with a dash to zoom out, or on the green arrows for adjacent maps.


METAR-TAF: